sensor_id;sensor_type;location;lat;lon;timestamp;pressure;altitude;pressure_sealevel;temperature;humidity
49585;BME280;35491;49.142;9.210;2022-11-15T00:00:11;99628.38;;;12.46;61.87
49585;BME280;35491;49.142;9.210;2022-11-15T00:01:17;99628.19;;;12.48;61.76
49585;BME280;35491;49.142;9.210;2022-11-15T00:02:21;99624.69;;;12.47;61.38
49585;BME280;35491;49.142;9.210;2022-11-15T00:03:27;99623.50;;;12.58;61.33
49585;BME280;35491;49.142;9.210;2022-11-15T00:04:37;99625.19;;;12.68;60.76
49585;BME280;35491;49.142;9.210;2022-11-15T00:05:42;99619.16;;;12.74;60.83
49585;BME280;35491;49.142;9.210;2022-11-15T00:06:44;99619.81;;;12.76;60.98
49585;BME280;35491;49.142;9.210;2022-11-15T00:07:52;99617.78;;;12.78;60.73
49585;BME280;35491;49.142;9.210;2022-11-15T00:08:54;99615.81;;;12.63;61.00
49585;BME280;35491;49.142;9.210;2022-11-15T00:09:59;99612.13;;;12.73;60.85
49585;BME280;35491;49.142;9.210;2022-11-15T00:11:02;99612.63;;;12.68;60.78
49585;BME280;35491;49.142;9.210;2022-11-15T00:12:07;99612.78;;;12.67;60.85
49585;BME280;35491;49.142;9.210;2022-11-15T00:13:11;99612.13;;;12.73;60.69
49585;BME280;35491;49.142;9.210;2022-11-15T00:14:18;99606.41;;;12.68;60.55
49585;BME280;35491;49.142;9.210;2022-11-15T00:15:21;99601.53;;;12.71;60.75
49585;BME280;35491;49.142;9.210;2022-11-15T00:16:25;99606.56;;;12.74;60.56
49585;BME280;35491;49.142;9.210;2022-11-15T00:17:33;99606.25;;;12.77;60.40
49585;BME280;35491;49.142;9.210;2022-11-15T00:18:37;99607.06;;;12.78;60.14
49585;BME280;35491;49.142;9.210;2022-11-15T00:19:46;99611.09;;;12.74;60.25
49585;BME280;35491;49.142;9.210;2022-11-15T00:20:50;99605.06;;;12.80;60.16
49585;BME280;35491;49.142;9.210;2022-11-15T00:22:00;99616.47;;;12.57;60.55
49585;BME280;35491;49.142;9.210;2022-11-15T00:23:05;99617.47;;;12.73;60.29
49585;BME280;35491;49.142;9.210;2022-11-15T00:24:09;99607.75;;;12.80;60.24
49585;BME280;35491;49.142;9.210;2022-11-15T00:25:13;99607.75;;;12.72;60.43
49585;BME280;35491;49.142;9.210;2022-11-15T00:26:17;99602.56;;;12.70;60.42
49585;BME280;35491;49.142;9.210;2022-11-15T00:27:21;99610.44;;;12.63;60.26
49585;BME280;35491;49.142;9.210;2022-11-15T00:56:39;99599.19;;;12.76;60.08
49585;BME280;35491;49.142;9.210;2022-11-15T00:57:45;99588.44;;;12.85;59.79
49585;BME280;35491;49.142;9.210;2022-11-15T00:58:49;99594.00;;;12.75;60.10
49585;BME280;35491;49.142;9.210;2022-11-15T00:59:53;99590.66;;;12.73;60.42
49585;BME280;35491;49.142;9.210;2022-11-15T01:00:54;99595.34;;;12.71;60.18
49585;BME280;35491;49.142;9.210;2022-11-15T01:01:58;99590.66;;;12.73;60.16
49585;BME280;35491;49.142;9.210;2022-11-15T01:03:00;99591.34;;;12.75;60.35
49585;BME280;35491;49.142;9.210;2022-11-15T01:04:04;99595.03;;;12.74;60.08
49585;BME280;35491;49.142;9.210;2022-11-15T01:05:06;99588.66;;;12.75;60.12
49585;BME280;35491;49.142;9.210;2022-11-15T01:06:11;99591.00;;;12.70;60.25
49585;BME280;35491;49.142;9.210;2022-11-15T01:07:12;99587.13;;;12.72;60.32
49585;BME280;35491;49.142;9.210;2022-11-15T01:08:17;99581.91;;;12.79;60.29
49585;BME280;35491;49.142;9.210;2022-11-15T01:09:45;99585.28;;;12.81;60.48
49585;BME280;35491;49.142;9.210;2022-11-15T01:11:41;99576.88;;;12.76;60.58
49585;BME280;35491;49.142;9.210;2022-11-15T01:20:15;99561.34;;;12.46;61.04
49585;BME280;35491;49.142;9.210;2022-11-15T01:36:58;99541.44;;;12.08;62.09
49585;BME280;35491;49.142;9.210;2022-11-15T01:38:06;99553.44;;;11.87;62.78
49585;BME280;35491;49.142;9.210;2022-11-15T01:39:09;99554.75;;;11.75;63.46
49585;BME280;35491;49.142;9.210;2022-11-15T01:40:19;99556.72;;;11.64;63.83
49585;BME280;35491;49.142;9.210;2022-11-15T01:41:33;99552.53;;;11.53;64.17
49585;BME280;35491;49.142;9.210;2022-11-15T01:42:37;99553.19;;;11.47;64.16
49585;BME280;35491;49.142;9.210;2022-11-15T01:43:39;99562.88;;;11.48;64.25
49585;BME280;35491;49.142;9.210;2022-11-15T01:44:46;99557.19;;;11.43;64.56
49585;BME280;35491;49.142;9.210;2022-11-15T01:45:51;99549.16;;;11.43;64.76
49585;BME280;35491;49.142;9.210;2022-11-15T01:46:58;99550.81;;;11.36;64.74
49585;BME280;35491;49.142;9.210;2022-11-15T01:48:00;99546.47;;;11.35;64.80
49585;BME280;35491;49.142;9.210;2022-11-15T01:49:11;99557.66;;;11.30;64.86
49585;BME280;35491;49.142;9.210;2022-11-15T01:50:16;99548.09;;;11.28;65.24
49585;BME280;35491;49.142;9.210;2022-11-15T01:51:25;99547.59;;;11.24;64.98
49585;BME280;35491;49.142;9.210;2022-11-15T01:52:32;99548.59;;;11.23;65.23
49585;BME280;35491;49.142;9.210;2022-11-15T01:53:38;99552.56;;;11.19;65.24
49585;BME280;35491;49.142;9.210;2022-11-15T01:54:42;99552.75;;;11.17;65.38
49585;BME280;35491;49.142;9.210;2022-11-15T01:55:47;99549.63;;;11.30;64.83
49585;BME280;35491;49.142;9.210;2022-11-15T01:56:51;99547.19;;;11.11;65.38
49585;BME280;35491;49.142;9.210;2022-11-15T01:57:59;99545.84;;;11.15;65.54
49585;BME280;35491;49.142;9.210;2022-11-15T01:59:06;99547.00;;;11.04;65.65
49585;BME280;35491;49.142;9.210;2022-11-15T02:00:13;99544.16;;;11.05;65.52
49585;BME280;35491;49.142;9.210;2022-11-15T02:01:15;99544.69;;;11.09;65.39
49585;BME280;35491;49.142;9.210;2022-11-15T02:02:19;99543.75;;;10.92;65.87
49585;BME280;35491;49.142;9.210;2022-11-15T02:03:23;99541.44;;;10.97;65.95
49585;BME280;35491;49.142;9.210;2022-11-15T02:04:32;99539.25;;;10.92;65.92
49585;BME280;35491;49.142;9.210;2022-11-15T02:05:36;99543.25;;;10.88;66.23
49585;BME280;35491;49.142;9.210;2022-11-15T02:06:41;99542.03;;;10.83;66.50
49585;BME280;35491;49.142;9.210;2022-11-15T02:07:47;99542.69;;;10.76;66.78
49585;BME280;35491;49.142;9.210;2022-11-15T02:08:52;99548.59;;;10.62;67.01
49585;BME280;35491;49.142;9.210;2022-11-15T02:09:54;99545.97;;;10.70;66.95
49585;BME280;35491;49.142;9.210;2022-11-15T02:10:59;99541.06;;;10.57;67.31
49585;BME280;35491;49.142;9.210;2022-11-15T02:12:00;99539.91;;;10.60;67.22
49585;BME280;35491;49.142;9.210;2022-11-15T02:13:04;99538.59;;;10.64;67.00
49585;BME280;35491;49.142;9.210;2022-11-15T02:14:07;99538.38;;;10.57;67.41
49585;BME280;35491;49.142;9.210;2022-11-15T02:15:12;99537.88;;;10.54;67.31
49585;BME280;35491;49.142;9.210;2022-11-15T02:37:19;99509.94;;;10.48;68.07
49585;BME280;35491;49.142;9.210;2022-11-15T02:38:34;99511.78;;;10.48;67.81
49585;BME280;35491;49.142;9.210;2022-11-15T02:39:50;99520.31;;;10.51;67.92
49585;BME280;35491;49.142;9.210;2022-11-15T02:40:58;99514.50;;;10.56;67.57
49585;BME280;35491;49.142;9.210;2022-11-15T02:42:06;99519.88;;;10.64;67.17
49585;BME280;35491;49.142;9.210;2022-11-15T02:43:37;99520.09;;;10.71;67.26
49585;BME280;35491;49.142;9.210;2022-11-15T02:44:56;99515.38;;;10.65;67.11
49585;BME280;35491;49.142;9.210;2022-11-15T02:46:05;99513.22;;;10.68;66.89
49585;BME280;35491;49.142;9.210;2022-11-15T02:47:12;99514.72;;;10.63;67.30
49585;BME280;35491;49.142;9.210;2022-11-15T02:48:21;99502.91;;;10.73;67.13
49585;BME280;35491;49.142;9.210;2022-11-15T02:49:32;99500.06;;;10.75;67.04
49585;BME280;35491;49.142;9.210;2022-11-15T02:50:38;99502.94;;;10.82;66.68
49585;BME280;35491;49.142;9.210;2022-11-15T02:51:42;99509.78;;;10.84;66.60
49585;BME280;35491;49.142;9.210;2022-11-15T03:30:33;99477.25;;;10.36;68.15
49585;BME280;35491;49.142;9.210;2022-11-15T03:31:45;99478.03;;;10.47;68.07
49585;BME280;35491;49.142;9.210;2022-11-15T03:32:55;99473.00;;;10.43;67.95
49585;BME280;35491;49.142;9.210;2022-11-15T03:34:06;99475.84;;;10.42;68.23
49585;BME280;35491;49.142;9.210;2022-11-15T03:35:11;99473.00;;;10.43;67.96
49585;BME280;35491;49.142;9.210;2022-11-15T03:36:16;99470.31;;;10.43;68.08
49585;BME280;35491;49.142;9.210;2022-11-15T03:37:20;99475.03;;;10.50;68.28
49585;BME280;35491;49.142;9.210;2022-11-15T03:38:26;99473.06;;;10.60;67.92
49585;BME280;35491;49.142;9.210;2022-11-15T03:39:30;99463.75;;;10.64;67.60
49585;BME280;35491;49.142;9.210;2022-11-15T03:40:36;99464.28;;;10.68;67.73
49585;BME280;35491;49.142;9.210;2022-11-15T03:41:43;99463.53;;;10.57;68.02
49585;BME280;35491;49.142;9.210;2022-11-15T03:42:54;99461.53;;;10.51;68.09
49585;BME280;35491;49.142;9.210;2022-11-15T03:44:04;99470.16;;;10.45;68.34
49585;BME280;35491;49.142;9.210;2022-11-15T03:45:15;99464.28;;;10.41;68.44
49585;BME280;35491;49.142;9.210;2022-11-15T03:46:25;99468.13;;;10.39;68.55
49585;BME280;35491;49.142;9.210;2022-11-15T03:47:32;99463.28;;;10.42;68.26
49585;BME280;35491;49.142;9.210;2022-11-15T03:48:42;99469.56;;;10.33;68.49
49585;BME280;35491;49.142;9.210;2022-11-15T03:49:49;99466.56;;;10.36;68.71
49585;BME280;35491;49.142;9.210;2022-11-15T03:50:55;99467.41;;;10.37;68.49
49585;BME280;35491;49.142;9.210;2022-11-15T03:51:58;99464.63;;;10.38;68.57
49585;BME280;35491;49.142;9.210;2022-11-15T03:53:02;99464.22;;;10.33;68.48
49585;BME280;35491;49.142;9.210;2022-11-15T03:54:04;99456.88;;;10.35;68.61
49585;BME280;35491;49.142;9.210;2022-11-15T03:55:11;99466.66;;;10.26;68.61
49585;BME280;35491;49.142;9.210;2022-11-15T03:56:13;99461.50;;;10.25;68.76
49585;BME280;35491;49.142;9.210;2022-11-15T03:57:17;99457.59;;;10.19;69.22
49585;BME280;35491;49.142;9.210;2022-11-15T03:58:19;99463.13;;;10.18;69.05
49585;BME280;35491;49.142;9.210;2022-11-15T03:59:23;99464.09;;;10.17;69.33
49585;BME280;35491;49.142;9.210;2022-11-15T04:00:25;99464.09;;;10.17;69.42
49585;BME280;35491;49.142;9.210;2022-11-15T04:01:31;99466.41;;;10.11;69.37
49585;BME280;35491;49.142;9.210;2022-11-15T04:02:33;99461.53;;;10.07;69.62
49585;BME280;35491;49.142;9.210;2022-11-15T04:03:37;99473.06;;;10.07;69.83
49585;BME280;35491;49.142;9.210;2022-11-15T04:04:39;99470.75;;;10.12;69.46
49585;BME280;35491;49.142;9.210;2022-11-15T04:05:43;99474.22;;;10.05;69.52
49585;BME280;35491;49.142;9.210;2022-11-15T04:06:45;99464.66;;;10.02;69.65
49585;BME280;35491;49.142;9.210;2022-11-15T04:07:49;99466.66;;;10.00;69.76
49585;BME280;35491;49.142;9.210;2022-11-15T04:08:50;99463.53;;;10.05;69.99
49585;BME280;35491;49.142;9.210;2022-11-15T04:09:54;99467.72;;;10.07;69.52
49585;BME280;35491;49.142;9.210;2022-11-15T04:11:06;99462.59;;;10.14;69.55
49585;BME280;35491;49.142;9.210;2022-11-15T04:12:10;99461.44;;;10.17;69.35
49585;BME280;35491;49.142;9.210;2022-11-15T04:13:11;99461.59;;;10.15;69.42
49585;BME280;35491;49.142;9.210;2022-11-15T04:14:15;99459.81;;;10.24;69.28
49585;BME280;35491;49.142;9.210;2022-11-15T04:15:19;99458.00;;;10.24;69.06
49585;BME280;35491;49.142;9.210;2022-11-15T04:16:24;99457.56;;;10.11;69.38
49585;BME280;35491;49.142;9.210;2022-11-15T04:17:28;99465.22;;;10.06;69.85
49585;BME280;35491;49.142;9.210;2022-11-15T04:18:32;99464.00;;;10.00;70.05
49585;BME280;35491;49.142;9.210;2022-11-15T04:19:36;99458.78;;;9.98;70.28
49585;BME280;35491;49.142;9.210;2022-11-15T04:20:52;99463.59;;;9.95;70.43
49585;BME280;35491;49.142;9.210;2022-11-15T04:22:08;99465.91;;;9.90;70.22
49585;BME280;35491;49.142;9.210;2022-11-15T04:23:25;99461.94;;;9.94;70.50
49585;BME280;35491;49.142;9.210;2022-11-15T04:24:41;99465.81;;;9.99;70.22
49585;BME280;35491;49.142;9.210;2022-11-15T04:25:47;99459.06;;;10.13;69.95
49585;BME280;35491;49.142;9.210;2022-11-15T04:26:51;99452.66;;;10.24;69.35
49585;BME280;35491;49.142;9.210;2022-11-15T04:27:55;99453.34;;;10.35;69.15
49585;BME280;35491;49.142;9.210;2022-11-15T04:28:56;99456.28;;;10.41;69.04
49585;BME280;35491;49.142;9.210;2022-11-15T04:30:13;99455.28;;;10.42;68.92
49585;BME280;35491;49.142;9.210;2022-11-15T04:31:17;99451.63;;;10.43;68.84
49585;BME280;35491;49.142;9.210;2022-11-15T04:32:18;99447.00;;;10.54;68.76
49585;BME280;35491;49.142;9.210;2022-11-15T04:33:25;99445.69;;;10.58;68.36
49585;BME280;35491;49.142;9.210;2022-11-15T04:34:30;99448.03;;;10.61;68.24
49585;BME280;35491;49.142;9.210;2022-11-15T04:35:31;99453.03;;;10.56;68.67
49585;BME280;35491;49.142;9.210;2022-11-15T04:36:35;99447.09;;;10.44;68.97
49585;BME280;35491;49.142;9.210;2022-11-15T04:37:52;99447.56;;;10.39;68.87
49585;BME280;35491;49.142;9.210;2022-11-15T04:38:53;99447.94;;;10.44;69.08
49585;BME280;35491;49.142;9.210;2022-11-15T04:39:57;99452.44;;;10.44;68.69
49585;BME280;35491;49.142;9.210;2022-11-15T04:40:59;99455.69;;;10.56;68.71
49585;BME280;35491;49.142;9.210;2022-11-15T04:42:03;99442.38;;;10.64;68.34
49585;BME280;35491;49.142;9.210;2022-11-15T04:43:05;99446.25;;;10.70;68.35
49585;BME280;35491;49.142;9.210;2022-11-15T04:44:19;99443.41;;;10.71;68.40
49585;BME280;35491;49.142;9.210;2022-11-15T04:45:21;99439.38;;;10.67;68.15
49585;BME280;35491;49.142;9.210;2022-11-15T04:46:30;99448.03;;;10.61;68.56
49585;BME280;35491;49.142;9.210;2022-11-15T04:47:32;99445.00;;;10.56;68.67
49585;BME280;35491;49.142;9.210;2022-11-15T04:48:38;99453.63;;;10.50;68.83
49585;BME280;35491;49.142;9.210;2022-11-15T04:49:40;99450.34;;;10.56;68.42
49585;BME280;35491;49.142;9.210;2022-11-15T04:50:47;99443.31;;;10.55;68.38
49585;BME280;35491;49.142;9.210;2022-11-15T04:51:51;99437.38;;;10.69;68.55
49585;BME280;35491;49.142;9.210;2022-11-15T04:52:55;99440.06;;;10.77;67.87
49585;BME280;35491;49.142;9.210;2022-11-15T04:53:59;99433.41;;;10.82;67.99
49585;BME280;35491;49.142;9.210;2022-11-15T04:55:00;99431.44;;;10.84;67.88
49585;BME280;35491;49.142;9.210;2022-11-15T04:56:06;99426.69;;;10.77;67.78
49585;BME280;35491;49.142;9.210;2022-11-15T04:57:08;99427.25;;;10.81;68.06
49585;BME280;35491;49.142;9.210;2022-11-15T04:58:12;99427.59;;;10.86;67.80
49585;BME280;35491;49.142;9.210;2022-11-15T04:59:14;99422.03;;;10.80;67.67
49585;BME280;35491;49.142;9.210;2022-11-15T05:00:19;99435.84;;;10.67;68.30
49585;BME280;35491;49.142;9.210;2022-11-15T05:01:20;99424.66;;;10.63;68.45
49585;BME280;35491;49.142;9.210;2022-11-15T05:02:24;99426.34;;;10.72;68.18
49585;BME280;35491;49.142;9.210;2022-11-15T05:03:48;99423.03;;;10.79;67.81
49585;BME280;35491;49.142;9.210;2022-11-15T05:05:11;99425.56;;;10.80;67.73
49585;BME280;35491;49.142;9.210;2022-11-15T05:06:18;99420.34;;;10.70;67.94
49585;BME280;35491;49.142;9.210;2022-11-15T05:07:40;99423.66;;;10.64;67.94
49585;BME280;35491;49.142;9.210;2022-11-15T05:10:18;99424.84;;;10.70;67.96
49585;BME280;35491;49.142;9.210;2022-11-15T05:10:59;99421.28;;;10.61;67.99
49585;BME280;35491;49.142;9.210;2022-11-15T05:12:17;99421.63;;;10.58;68.45
49585;BME280;35491;49.142;9.210;2022-11-15T05:13:35;99420.09;;;10.55;68.53
49585;BME280;35491;49.142;9.210;2022-11-15T05:14:47;99420.28;;;10.54;68.50
49585;BME280;35491;49.142;9.210;2022-11-15T05:16:13;99419.78;;;10.58;68.44
49585;BME280;35491;49.142;9.210;2022-11-15T05:17:28;99421.16;;;10.63;68.18
49585;BME280;35491;49.142;9.210;2022-11-15T05:18:45;99414.28;;;10.60;68.33
49585;BME280;35491;49.142;9.210;2022-11-15T05:20:05;99414.47;;;10.67;67.88
49585;BME280;35491;49.142;9.210;2022-11-15T05:21:22;99411.31;;;10.71;68.06
49585;BME280;35491;49.142;9.210;2022-11-15T05:22:34;99416.00;;;10.77;67.79
49585;BME280;35491;49.142;9.210;2022-11-15T05:23:52;99413.00;;;10.72;67.83
49585;BME280;35491;49.142;9.210;2022-11-15T05:25:04;99412.97;;;10.64;68.01
49585;BME280;35491;49.142;9.210;2022-11-15T05:26:11;99410.28;;;10.64;68.20
49585;BME280;35491;49.142;9.210;2022-11-15T05:27:14;99410.16;;;10.74;67.84
49585;BME280;35491;49.142;9.210;2022-11-15T05:28:22;99420.03;;;10.73;67.83
49585;BME280;35491;49.142;9.210;2022-11-15T05:29:25;99410.50;;;10.71;67.84
49585;BME280;35491;49.142;9.210;2022-11-15T05:30:31;99418.69;;;10.77;67.89
49585;BME280;35491;49.142;9.210;2022-11-15T05:32:36;99412.38;;;10.87;67.44
49585;BME280;35491;49.142;9.210;2022-11-15T05:33:41;99404.03;;;10.90;67.65
49585;BME280;35491;49.142;9.210;2022-11-15T05:34:43;99404.72;;;10.92;67.50
49585;BME280;35491;49.142;9.210;2022-11-15T05:35:55;99403.72;;;10.93;67.27
49585;BME280;35491;49.142;9.210;2022-11-15T05:36:59;99409.06;;;10.93;67.59
49585;BME280;35491;49.142;9.210;2022-11-15T05:38:03;99408.22;;;10.92;67.48
49585;BME280;35491;49.142;9.210;2022-11-15T05:39:06;99403.34;;;10.88;67.51
49585;BME280;35491;49.142;9.210;2022-11-15T05:40:10;99405.47;;;10.76;67.83
49585;BME280;35491;49.142;9.210;2022-11-15T05:41:12;99402.28;;;10.64;68.52
49585;BME280;35491;49.142;9.210;2022-11-15T05:42:17;99400.78;;;10.70;68.42
49585;BME280;35491;49.142;9.210;2022-11-15T05:43:19;99394.28;;;10.72;68.25
49585;BME280;35491;49.142;9.210;2022-11-15T05:44:24;99400.81;;;10.78;67.97
49585;BME280;35491;49.142;9.210;2022-11-15T05:45:27;99404.81;;;10.82;68.14
49585;BME280;35491;49.142;9.210;2022-11-15T05:46:32;99394.31;;;10.81;68.13
49585;BME280;35491;49.142;9.210;2022-11-15T05:47:36;99400.31;;;10.74;68.42
49585;BME280;35491;49.142;9.210;2022-11-15T05:48:44;99405.28;;;10.69;68.66
49585;BME280;35491;49.142;9.210;2022-11-15T05:49:47;99397.13;;;10.71;68.88
49585;BME280;35491;49.142;9.210;2022-11-15T05:50:56;99403.47;;;10.70;69.04
49585;BME280;35491;49.142;9.210;2022-11-15T05:51:58;99399.91;;;10.61;69.02
49585;BME280;35491;49.142;9.210;2022-11-15T05:53:02;99404.56;;;10.59;69.29
49585;BME280;35491;49.142;9.210;2022-11-15T05:54:04;99400.25;;;10.58;69.23
49585;BME280;35491;49.142;9.210;2022-11-15T05:55:08;99401.06;;;10.58;69.55
49585;BME280;35491;49.142;9.210;2022-11-15T05:56:12;99399.56;;;10.56;69.23
49585;BME280;35491;49.142;9.210;2022-11-15T05:57:18;99406.91;;;10.54;69.57
49585;BME280;35491;49.142;9.210;2022-11-15T05:58:20;99406.53;;;10.49;69.94
49585;BME280;35491;49.142;9.210;2022-11-15T05:59:24;99414.19;;;10.43;70.03
49585;BME280;35491;49.142;9.210;2022-11-15T06:00:26;99408.63;;;10.37;70.17
49585;BME280;35491;49.142;9.210;2022-11-15T06:01:30;99412.25;;;10.27;71.03
49585;BME280;35491;49.142;9.210;2022-11-15T06:02:32;99407.06;;;10.26;71.14
49585;BME280;35491;49.142;9.210;2022-11-15T06:03:36;99403.72;;;10.24;71.20
49585;BME280;35491;49.142;9.210;2022-11-15T06:04:37;99406.22;;;10.25;71.16
49585;BME280;35491;49.142;9.210;2022-11-15T06:05:41;99409.56;;;10.27;70.78
49585;BME280;35491;49.142;9.210;2022-11-15T06:06:46;99406.22;;;10.25;70.85
49585;BME280;35491;49.142;9.210;2022-11-15T06:07:50;99401.72;;;10.26;70.83
49585;BME280;35491;49.142;9.210;2022-11-15T06:08:51;99406.75;;;10.29;71.03
49585;BME280;35491;49.142;9.210;2022-11-15T06:09:56;99408.41;;;10.30;70.94
49585;BME280;35491;49.142;9.210;2022-11-15T06:11:03;99414.59;;;10.30;70.87
49585;BME280;35491;49.142;9.210;2022-11-15T06:12:07;99411.25;;;10.28;70.71
49585;BME280;35491;49.142;9.210;2022-11-15T06:13:08;99403.88;;;10.22;71.07
49585;BME280;35491;49.142;9.210;2022-11-15T06:14:12;99416.38;;;10.22;71.19
49585;BME280;35491;49.142;9.210;2022-11-15T06:15:14;99404.56;;;10.24;71.17
49585;BME280;35491;49.142;9.210;2022-11-15T06:16:18;99409.34;;;10.21;71.00
49585;BME280;35491;49.142;9.210;2022-11-15T06:17:20;99398.84;;;10.19;71.35
49585;BME280;35491;49.142;9.210;2022-11-15T06:18:24;99407.72;;;10.20;71.44
49585;BME280;35491;49.142;9.210;2022-11-15T06:19:25;99411.91;;;10.22;71.04
49585;BME280;35491;49.142;9.210;2022-11-15T06:20:33;99412.19;;;10.19;71.46
49585;BME280;35491;49.142;9.210;2022-11-15T06:21:35;99406.34;;;10.15;71.43
49585;BME280;35491;49.142;9.210;2022-11-15T06:22:42;99406.00;;;10.10;72.04
49585;BME280;35491;49.142;9.210;2022-11-15T06:23:43;99400.47;;;10.12;71.67
49585;BME280;35491;49.142;9.210;2022-11-15T06:24:47;99403.31;;;10.10;71.80
49585;BME280;35491;49.142;9.210;2022-11-15T06:25:49;99404.97;;;10.11;71.76
49585;BME280;35491;49.142;9.210;2022-11-15T06:26:53;99402.97;;;10.13;71.84
49585;BME280;35491;49.142;9.210;2022-11-15T06:27:56;99411.47;;;10.09;71.98
49585;BME280;35491;49.142;9.210;2022-11-15T06:29:02;99409.97;;;10.06;72.01
49585;BME280;35491;49.142;9.210;2022-11-15T06:30:07;99406.00;;;10.10;72.05
49585;BME280;35491;49.142;9.210;2022-11-15T06:31:10;99402.63;;;10.08;72.03
49585;BME280;35491;49.142;9.210;2022-11-15T06:32:14;99409.47;;;10.11;72.04
49585;BME280;35491;49.142;9.210;2022-11-15T06:33:16;99410.00;;;10.14;72.14
49585;BME280;35491;49.142;9.210;2022-11-15T06:34:20;99401.81;;;10.16;71.85
49585;BME280;35491;49.142;9.210;2022-11-15T06:35:22;99404.34;;;10.18;71.86
49585;BME280;35491;49.142;9.210;2022-11-15T06:36:26;99402.69;;;10.17;71.78
49585;BME280;35491;49.142;9.210;2022-11-15T06:37:30;99399.16;;;10.16;72.01
49585;BME280;35491;49.142;9.210;2022-11-15T06:38:34;99408.53;;;10.20;72.05
49585;BME280;35491;49.142;9.210;2022-11-15T06:39:38;99407.03;;;10.18;72.15
49585;BME280;35491;49.142;9.210;2022-11-15T06:40:40;99403.03;;;10.22;72.20
49585;BME280;35491;49.142;9.210;2022-11-15T06:41:44;99403.03;;;10.22;72.20
49585;BME280;35491;49.142;9.210;2022-11-15T06:42:46;99407.72;;;10.20;72.11
49585;BME280;35491;49.142;9.210;2022-11-15T06:43:50;99409.69;;;10.18;72.48
49585;BME280;35491;49.142;9.210;2022-11-15T06:44:54;99415.66;;;10.11;72.72
49585;BME280;35491;49.142;9.210;2022-11-15T06:45:56;99413.34;;;10.17;72.33
49585;BME280;35491;49.142;9.210;2022-11-15T06:47:01;99413.34;;;10.17;72.49
49585;BME280;35491;49.142;9.210;2022-11-15T06:48:03;99417.84;;;10.16;72.35
49585;BME280;35491;49.142;9.210;2022-11-15T06:49:07;99419.69;;;10.15;72.76
49585;BME280;35491;49.142;9.210;2022-11-15T06:50:09;99419.00;;;10.13;72.60
49585;BME280;35491;49.142;9.210;2022-11-15T06:51:13;99419.34;;;10.10;73.04
49585;BME280;35491;49.142;9.210;2022-11-15T06:52:14;99421.94;;;10.02;73.00
49585;BME280;35491;49.142;9.210;2022-11-15T06:53:19;99417.13;;;10.06;73.08
49585;BME280;35491;49.142;9.210;2022-11-15T06:54:23;99427.28;;;10.02;73.20
49585;BME280;35491;49.142;9.210;2022-11-15T06:55:27;99425.06;;;9.97;73.31
49585;BME280;35491;49.142;9.210;2022-11-15T06:56:29;99418.28;;;10.03;73.16
49585;BME280;35491;49.142;9.210;2022-11-15T06:57:33;99425.63;;;10.01;73.35
49585;BME280;35491;49.142;9.210;2022-11-15T06:58:35;99423.09;;;9.99;73.15
49585;BME280;35491;49.142;9.210;2022-11-15T06:59:39;99425.22;;;9.96;73.54
49585;BME280;35491;49.142;9.210;2022-11-15T07:00:40;99423.88;;;9.92;73.67
49585;BME280;35491;49.142;9.210;2022-11-15T07:01:45;99423.88;;;9.92;73.63
49585;BME280;35491;49.142;9.210;2022-11-15T07:02:46;99426.56;;;9.92;73.71
49585;BME280;35491;49.142;9.210;2022-11-15T07:03:50;99428.22;;;9.93;73.52
49585;BME280;35491;49.142;9.210;2022-11-15T07:04:54;99430.00;;;9.84;74.25
49585;BME280;35491;49.142;9.210;2022-11-15T07:05:57;99423.28;;;9.80;74.50
49585;BME280;35491;49.142;9.210;2022-11-15T07:07:01;99422.06;;;9.74;74.40
49585;BME280;35491;49.142;9.210;2022-11-15T07:08:03;99420.03;;;9.68;74.91
49585;BME280;35491;49.142;9.210;2022-11-15T07:09:07;99414.97;;;9.65;75.03
49585;BME280;35491;49.142;9.210;2022-11-15T07:10:14;99420.94;;;9.59;75.38
49585;BME280;35491;49.142;9.210;2022-11-15T07:11:16;99415.44;;;9.60;75.43
49585;BME280;35491;49.142;9.210;2022-11-15T07:12:20;99420.31;;;9.65;75.29
49585;BME280;35491;49.142;9.210;2022-11-15T07:13:24;99421.41;;;9.72;75.16
49585;BME280;35491;49.142;9.210;2022-11-15T07:14:28;99424.72;;;9.74;74.72
49585;BME280;35491;49.142;9.210;2022-11-15T07:15:29;99422.44;;;9.79;74.68
49585;BME280;35491;49.142;9.210;2022-11-15T07:16:33;99427.47;;;9.82;74.69
49585;BME280;35491;49.142;9.210;2022-11-15T07:17:35;99420.84;;;9.87;74.40
49585;BME280;35491;49.142;9.210;2022-11-15T07:18:40;99417.16;;;9.88;74.35
49585;BME280;35491;49.142;9.210;2022-11-15T07:19:44;99419.38;;;9.92;74.22
49585;BME280;35491;49.142;9.210;2022-11-15T07:20:45;99420.88;;;9.95;74.12
49585;BME280;35491;49.142;9.210;2022-11-15T07:21:49;99418.59;;;10.00;73.96
49585;BME280;35491;49.142;9.210;2022-11-15T07:22:59;99422.47;;;10.06;73.76
49585;BME280;35491;49.142;9.210;2022-11-15T07:24:04;99424.59;;;10.02;73.94
49585;BME280;35491;49.142;9.210;2022-11-15T07:25:09;99422.78;;;10.03;74.02
49585;BME280;35491;49.142;9.210;2022-11-15T07:26:13;99428.81;;;10.05;74.02
49585;BME280;35491;49.142;9.210;2022-11-15T07:27:17;99425.28;;;10.04;74.07
49585;BME280;35491;49.142;9.210;2022-11-15T07:28:18;99433.69;;;10.09;73.81
49585;BME280;35491;49.142;9.210;2022-11-15T07:29:22;99433.00;;;10.07;73.79
49585;BME280;35491;49.142;9.210;2022-11-15T07:30:25;99433.69;;;10.09;73.92
49585;BME280;35491;49.142;9.210;2022-11-15T07:31:29;99427.19;;;10.12;73.97
49585;BME280;35491;49.142;9.210;2022-11-15T07:32:31;99435.50;;;10.09;73.72
49585;BME280;35491;49.142;9.210;2022-11-15T07:33:35;99427.50;;;10.09;73.73
49585;BME280;35491;49.142;9.210;2022-11-15T07:34:37;99426.66;;;10.08;73.71
49585;BME280;35491;49.142;9.210;2022-11-15T07:35:41;99426.34;;;10.11;73.82
49585;BME280;35491;49.142;9.210;2022-11-15T07:36:47;99427.50;;;10.09;73.95
49585;BME280;35491;49.142;9.210;2022-11-15T07:37:57;99429.63;;;10.05;73.88
49585;BME280;35491;49.142;9.210;2022-11-15T07:39:01;99432.00;;;10.08;73.79
49585;BME280;35491;49.142;9.210;2022-11-15T07:40:07;99437.00;;;10.11;73.95